sensor_id;sensor_type;location;lat;lon;timestamp;P1;durP1;ratioP1;P2;durP2;ratioP2
82630;SDS011;72301;52.376;9.738;2023-11-18T00:01:43;6.72;;;2.88;;
82630;SDS011;72301;52.376;9.738;2023-11-18T00:04:08;7.13;;;3.10;;
82630;SDS011;72301;52.376;9.738;2023-11-18T00:06:40;7.38;;;3.50;;
82630;SDS011;72301;52.376;9.738;2023-11-18T00:09:06;8.02;;;3.40;;
82630;SDS011;72301;52.376;9.738;2023-11-18T00:11:31;8.40;;;3.67;;
82630;SDS011;72301;52.376;9.738;2023-11-18T00:13:56;9.37;;;4.47;;
82630;SDS011;72301;52.376;9.738;2023-11-18T00:16:22;7.28;;;3.22;;
82630;SDS011;72301;52.376;9.738;2023-11-18T00:18:47;7.53;;;3.10;;
82630;SDS011;72301;52.376;9.738;2023-11-18T00:21:13;8.23;;;3.20;;
82630;SDS011;72301;52.376;9.738;2023-11-18T00:23:38;6.93;;;3.43;;
82630;SDS011;72301;52.376;9.738;2023-11-18T00:26:04;7.65;;;3.33;;
82630;SDS011;72301;52.376;9.738;2023-11-18T00:28:32;8.20;;;3.60;;
82630;SDS011;72301;52.376;9.738;2023-11-18T00:30:57;9.23;;;3.47;;
82630;SDS011;72301;52.376;9.738;2023-11-18T00:33:22;9.40;;;3.60;;
82630;SDS011;72301;52.376;9.738;2023-11-18T00:35:48;8.43;;;3.50;;
82630;SDS011;72301;52.376;9.738;2023-11-18T00:38:13;7.63;;;3.40;;
82630;SDS011;72301;52.376;9.738;2023-11-18T00:40:38;8.67;;;3.40;;
82630;SDS011;72301;52.376;9.738;2023-11-18T00:43:04;7.87;;;3.80;;
82630;SDS011;72301;52.376;9.738;2023-11-18T00:45:29;7.28;;;3.50;;
82630;SDS011;72301;52.376;9.738;2023-11-18T00:47:55;7.07;;;3.00;;
82630;SDS011;72301;52.376;9.738;2023-11-18T00:50:20;7.90;;;3.90;;
82630;SDS011;72301;52.376;9.738;2023-11-18T00:52:45;8.47;;;3.07;;
82630;SDS011;72301;52.376;9.738;2023-11-18T00:55:14;8.40;;;3.42;;
82630;SDS011;72301;52.376;9.738;2023-11-18T00:57:41;7.72;;;3.35;;
82630;SDS011;72301;52.376;9.738;2023-11-18T01:00:07;7.43;;;3.93;;
82630;SDS011;72301;52.376;9.738;2023-11-18T01:02:34;8.38;;;4.30;;
82630;SDS011;72301;52.376;9.738;2023-11-18T01:04:59;8.40;;;4.17;;
82630;SDS011;72301;52.376;9.738;2023-11-18T01:07:25;7.13;;;3.40;;
82630;SDS011;72301;52.376;9.738;2023-11-18T01:09:50;9.13;;;3.30;;
82630;SDS011;72301;52.376;9.738;2023-11-18T01:12:15;7.57;;;3.47;;
82630;SDS011;72301;52.376;9.738;2023-11-18T01:14:40;7.97;;;3.30;;
82630;SDS011;72301;52.376;9.738;2023-11-18T01:17:07;8.90;;;3.90;;
82630;SDS011;72301;52.376;9.738;2023-11-18T01:19:34;9.50;;;4.05;;
82630;SDS011;72301;52.376;9.738;2023-11-18T01:21:59;8.35;;;3.60;;
82630;SDS011;72301;52.376;9.738;2023-11-18T01:24:25;6.90;;;3.30;;
82630;SDS011;72301;52.376;9.738;2023-11-18T01:26:50;7.90;;;3.50;;
82630;SDS011;72301;52.376;9.738;2023-11-18T01:29:15;7.27;;;3.13;;
82630;SDS011;72301;52.376;9.738;2023-11-18T01:31:41;7.57;;;3.30;;
82630;SDS011;72301;52.376;9.738;2023-11-18T01:34:06;8.20;;;3.37;;
82630;SDS011;72301;52.376;9.738;2023-11-18T01:36:32;8.90;;;3.95;;
82630;SDS011;72301;52.376;9.738;2023-11-18T01:38:58;7.55;;;3.30;;
82630;SDS011;72301;52.376;9.738;2023-11-18T01:41:23;8.10;;;3.60;;
82630;SDS011;72301;52.376;9.738;2023-11-18T01:43:48;7.70;;;3.40;;
82630;SDS011;72301;52.376;9.738;2023-11-18T01:46:14;8.37;;;3.67;;
82630;SDS011;72301;52.376;9.738;2023-11-18T01:48:41;8.95;;;4.20;;
82630;SDS011;72301;52.376;9.738;2023-11-18T01:51:07;7.30;;;3.50;;
82630;SDS011;72301;52.376;9.738;2023-11-18T01:53:36;10.18;;;3.90;;
82630;SDS011;72301;52.376;9.738;2023-11-18T01:56:02;8.48;;;3.50;;
82630;SDS011;72301;52.376;9.738;2023-11-18T01:58:27;6.95;;;3.28;;
82630;SDS011;72301;52.376;9.738;2023-11-18T02:00:55;8.23;;;3.83;;
82630;SDS011;72301;52.376;9.738;2023-11-18T02:03:21;7.63;;;3.37;;
82630;SDS011;72301;52.376;9.738;2023-11-18T02:05:46;7.88;;;3.28;;
82630;SDS011;72301;52.376;9.738;2023-11-18T02:08:12;7.67;;;3.40;;
82630;SDS011;72301;52.376;9.738;2023-11-18T02:11:00;8.00;;;3.65;;
82630;SDS011;72301;52.376;9.738;2023-11-18T02:13:36;7.57;;;3.38;;
82630;SDS011;72301;52.376;9.738;2023-11-18T02:16:04;7.80;;;3.13;;
82630;SDS011;72301;52.376;9.738;2023-11-18T02:18:29;7.57;;;3.35;;
82630;SDS011;72301;52.376;9.738;2023-11-18T02:20:55;8.20;;;3.60;;
82630;SDS011;72301;52.376;9.738;2023-11-18T02:23:24;8.63;;;3.83;;
82630;SDS011;72301;52.376;9.738;2023-11-18T02:25:51;7.45;;;3.50;;
82630;SDS011;72301;52.376;9.738;2023-11-18T02:28:17;8.15;;;3.90;;
82630;SDS011;72301;52.376;9.738;2023-11-18T02:30:43;8.13;;;3.58;;
82630;SDS011;72301;52.376;9.738;2023-11-18T02:33:15;7.85;;;3.25;;
82630;SDS011;72301;52.376;9.738;2023-11-18T02:35:48;8.32;;;3.83;;
82630;SDS011;72301;52.376;9.738;2023-11-18T02:38:18;8.57;;;3.60;;
82630;SDS011;72301;52.376;9.738;2023-11-18T02:40:45;7.38;;;3.20;;
82630;SDS011;72301;52.376;9.738;2023-11-18T02:43:13;8.50;;;3.92;;
82630;SDS011;72301;52.376;9.738;2023-11-18T02:45:39;7.70;;;3.42;;
82630;SDS011;72301;52.376;9.738;2023-11-18T02:48:06;7.90;;;3.30;;
82630;SDS011;72301;52.376;9.738;2023-11-18T02:50:31;7.68;;;3.03;;
82630;SDS011;72301;52.376;9.738;2023-11-18T02:52:57;6.65;;;2.80;;
82630;SDS011;72301;52.376;9.738;2023-11-18T02:55:22;7.07;;;2.73;;
82630;SDS011;72301;52.376;9.738;2023-11-18T02:57:49;7.70;;;3.10;;
82630;SDS011;72301;52.376;9.738;2023-11-18T03:00:14;7.35;;;2.63;;
82630;SDS011;72301;52.376;9.738;2023-11-18T03:02:46;7.68;;;3.40;;
82630;SDS011;72301;52.376;9.738;2023-11-18T03:05:13;7.53;;;3.47;;
82630;SDS011;72301;52.376;9.738;2023-11-18T03:07:39;7.55;;;3.25;;
82630;SDS011;72301;52.376;9.738;2023-11-18T03:10:06;7.47;;;3.10;;
82630;SDS011;72301;52.376;9.738;2023-11-18T03:12:36;7.03;;;3.20;;
82630;SDS011;72301;52.376;9.738;2023-11-18T03:15:03;7.93;;;3.67;;
82630;SDS011;72301;52.376;9.738;2023-11-18T03:17:30;7.40;;;3.33;;
82630;SDS011;72301;52.376;9.738;2023-11-18T03:19:55;6.70;;;3.00;;
82630;SDS011;72301;52.376;9.738;2023-11-18T03:22:21;6.75;;;3.08;;
82630;SDS011;72301;52.376;9.738;2023-11-18T03:24:48;8.07;;;3.38;;
82630;SDS011;72301;52.376;9.738;2023-11-18T03:27:14;7.20;;;2.97;;
82630;SDS011;72301;52.376;9.738;2023-11-18T03:29:40;7.70;;;3.53;;
82630;SDS011;72301;52.376;9.738;2023-11-18T03:32:05;8.38;;;3.22;;
82630;SDS011;72301;52.376;9.738;2023-11-18T03:34:31;6.97;;;3.00;;
82630;SDS011;72301;52.376;9.738;2023-11-18T03:36:56;7.43;;;2.87;;
82630;SDS011;72301;52.376;9.738;2023-11-18T03:39:22;7.97;;;3.33;;
82630;SDS011;72301;52.376;9.738;2023-11-18T03:41:47;7.40;;;3.20;;
82630;SDS011;72301;52.376;9.738;2023-11-18T03:44:12;9.13;;;3.87;;
82630;SDS011;72301;52.376;9.738;2023-11-18T03:46:38;9.35;;;3.97;;
82630;SDS011;72301;52.376;9.738;2023-11-18T03:49:03;7.67;;;3.20;;
82630;SDS011;72301;52.376;9.738;2023-11-18T03:51:29;8.47;;;3.40;;
82630;SDS011;72301;52.376;9.738;2023-11-18T03:53:54;7.35;;;3.00;;
82630;SDS011;72301;52.376;9.738;2023-11-18T03:56:20;6.63;;;2.60;;
82630;SDS011;72301;52.376;9.738;2023-11-18T03:58:45;7.03;;;3.17;;
82630;SDS011;72301;52.376;9.738;2023-11-18T04:01:22;7.72;;;3.20;;
82630;SDS011;72301;52.376;9.738;2023-11-18T04:03:48;6.75;;;2.88;;
82630;SDS011;72301;52.376;9.738;2023-11-18T04:06:14;8.13;;;3.60;;
82630;SDS011;72301;52.376;9.738;2023-11-18T04:08:44;7.50;;;2.90;;
82630;SDS011;72301;52.376;9.738;2023-11-18T04:11:10;6.78;;;3.40;;
82630;SDS011;72301;52.376;9.738;2023-11-18T04:13:36;8.55;;;3.70;;
82630;SDS011;72301;52.376;9.738;2023-11-18T04:16:01;7.53;;;3.10;;
82630;SDS011;72301;52.376;9.738;2023-11-18T04:18:26;7.37;;;3.43;;
82630;SDS011;72301;52.376;9.738;2023-11-18T04:20:52;7.63;;;3.33;;
82630;SDS011;72301;52.376;9.738;2023-11-18T04:23:18;6.90;;;3.00;;
82630;SDS011;72301;52.376;9.738;2023-11-18T04:25:43;7.82;;;3.13;;
82630;SDS011;72301;52.376;9.738;2023-11-18T04:28:09;7.82;;;3.00;;
82630;SDS011;72301;52.376;9.738;2023-11-18T04:30:35;8.38;;;3.63;;
82630;SDS011;72301;52.376;9.738;2023-11-18T04:33:00;7.80;;;3.23;;
82630;SDS011;72301;52.376;9.738;2023-11-18T04:35:26;7.50;;;3.30;;
82630;SDS011;72301;52.376;9.738;2023-11-18T04:37:51;7.20;;;3.20;;
82630;SDS011;72301;52.376;9.738;2023-11-18T04:40:16;7.47;;;3.03;;
82630;SDS011;72301;52.376;9.738;2023-11-18T04:42:42;7.28;;;2.88;;
82630;SDS011;72301;52.376;9.738;2023-11-18T04:45:07;6.30;;;2.50;;
82630;SDS011;72301;52.376;9.738;2023-11-18T04:47:36;6.43;;;2.92;;
82630;SDS011;72301;52.376;9.738;2023-11-18T04:50:02;6.75;;;3.03;;
82630;SDS011;72301;52.376;9.738;2023-11-18T04:52:29;7.50;;;3.30;;
82630;SDS011;72301;52.376;9.738;2023-11-18T04:54:57;7.20;;;3.33;;
82630;SDS011;72301;52.376;9.738;2023-11-18T04:57:22;7.63;;;3.17;;
82630;SDS011;72301;52.376;9.738;2023-11-18T04:59:48;6.82;;;2.75;;
82630;SDS011;72301;52.376;9.738;2023-11-18T05:02:14;6.40;;;2.90;;
82630;SDS011;72301;52.376;9.738;2023-11-18T05:04:39;6.70;;;3.00;;
82630;SDS011;72301;52.376;9.738;2023-11-18T05:07:06;6.55;;;2.60;;
82630;SDS011;72301;52.376;9.738;2023-11-18T05:09:31;6.78;;;2.80;;
82630;SDS011;72301;52.376;9.738;2023-11-18T05:11:57;6.00;;;2.60;;
82630;SDS011;72301;52.376;9.738;2023-11-18T05:14:23;6.45;;;3.03;;
82630;SDS011;72301;52.376;9.738;2023-11-18T05:16:48;5.85;;;2.63;;
82630;SDS011;72301;52.376;9.738;2023-11-18T05:19:14;7.00;;;2.90;;
82630;SDS011;72301;52.376;9.738;2023-11-18T05:21:39;7.67;;;2.90;;
82630;SDS011;72301;52.376;9.738;2023-11-18T05:24:04;7.75;;;3.13;;
82630;SDS011;72301;52.376;9.738;2023-11-18T05:26:30;7.55;;;3.30;;
82630;SDS011;72301;52.376;9.738;2023-11-18T05:28:55;6.53;;;2.50;;
82630;SDS011;72301;52.376;9.738;2023-11-18T05:31:21;7.57;;;3.10;;
82630;SDS011;72301;52.376;9.738;2023-11-18T05:33:55;7.87;;;3.17;;
82630;SDS011;72301;52.376;9.738;2023-11-18T05:36:23;6.78;;;2.50;;
82630;SDS011;72301;52.376;9.738;2023-11-18T05:38:53;7.43;;;2.85;;
82630;SDS011;72301;52.376;9.738;2023-11-18T05:41:19;6.25;;;2.95;;
82630;SDS011;72301;52.376;9.738;2023-11-18T05:43:52;6.43;;;2.80;;
82630;SDS011;72301;52.376;9.738;2023-11-18T05:46:19;6.78;;;2.90;;
82630;SDS011;72301;52.376;9.738;2023-11-18T05:48:49;6.90;;;2.95;;
82630;SDS011;72301;52.376;9.738;2023-11-18T05:51:18;7.30;;;2.88;;
82630;SDS011;72301;52.376;9.738;2023-11-18T05:53:46;7.93;;;3.38;;
82630;SDS011;72301;52.376;9.738;2023-11-18T05:56:12;6.63;;;2.55;;
82630;SDS011;72301;52.376;9.738;2023-11-18T05:58:38;6.45;;;2.78;;
82630;SDS011;72301;52.376;9.738;2023-11-18T06:01:04;6.40;;;2.92;;
82630;SDS011;72301;52.376;9.738;2023-11-18T06:03:34;7.05;;;2.45;;
82630;SDS011;72301;52.376;9.738;2023-11-18T06:06:12;6.93;;;3.15;;
82630;SDS011;72301;52.376;9.738;2023-11-18T06:08:41;6.78;;;2.80;;
82630;SDS011;72301;52.376;9.738;2023-11-18T06:11:17;7.10;;;2.85;;
82630;SDS011;72301;52.376;9.738;2023-11-18T06:13:48;7.65;;;3.13;;
82630;SDS011;72301;52.376;9.738;2023-11-18T06:16:18;7.20;;;3.17;;
82630;SDS011;72301;52.376;9.738;2023-11-18T06:18:46;6.10;;;2.53;;
82630;SDS011;72301;52.376;9.738;2023-11-18T06:21:13;7.03;;;2.92;;
82630;SDS011;72301;52.376;9.738;2023-11-18T06:23:40;6.30;;;2.60;;
82630;SDS011;72301;52.376;9.738;2023-11-18T06:26:09;6.70;;;2.70;;
82630;SDS011;72301;52.376;9.738;2023-11-18T06:28:41;6.10;;;2.90;;
82630;SDS011;72301;52.376;9.738;2023-11-18T06:31:08;7.28;;;2.70;;
82630;SDS011;72301;52.376;9.738;2023-11-18T06:33:39;7.53;;;2.90;;
82630;SDS011;72301;52.376;9.738;2023-11-18T06:36:15;7.00;;;2.53;;
82630;SDS011;72301;52.376;9.738;2023-11-18T06:38:42;7.47;;;2.83;;
82630;SDS011;72301;52.376;9.738;2023-11-18T06:41:09;6.43;;;2.83;;
82630;SDS011;72301;52.376;9.738;2023-11-18T06:43:37;8.23;;;3.40;;
82630;SDS011;72301;52.376;9.738;2023-11-18T06:46:21;7.55;;;3.30;;
82630;SDS011;72301;52.376;9.738;2023-11-18T06:48:54;8.50;;;3.75;;
82630;SDS011;72301;52.376;9.738;2023-11-18T06:51:32;6.55;;;2.72;;
82630;SDS011;72301;52.376;9.738;2023-11-18T06:54:03;7.10;;;2.92;;
82630;SDS011;72301;52.376;9.738;2023-11-18T06:56:33;6.80;;;2.55;;
82630;SDS011;72301;52.376;9.738;2023-11-18T06:59:01;6.55;;;2.60;;
82630;SDS011;72301;52.376;9.738;2023-11-18T07:01:27;7.85;;;2.88;;
82630;SDS011;72301;52.376;9.738;2023-11-18T07:03:54;7.07;;;2.70;;
82630;SDS011;72301;52.376;9.738;2023-11-18T07:06:21;6.72;;;2.60;;
82630;SDS011;72301;52.376;9.738;2023-11-18T07:08:51;6.93;;;3.20;;
82630;SDS011;72301;52.376;9.738;2023-11-18T07:11:17;7.43;;;2.90;;
82630;SDS011;72301;52.376;9.738;2023-11-18T07:13:43;7.85;;;3.13;;
82630;SDS011;72301;52.376;9.738;2023-11-18T07:16:10;7.43;;;3.22;;
82630;SDS011;72301;52.376;9.738;2023-11-18T07:18:35;7.25;;;2.78;;
82630;SDS011;72301;52.376;9.738;2023-11-18T07:21:02;7.65;;;2.92;;
82630;SDS011;72301;52.376;9.738;2023-11-18T07:23:29;7.10;;;3.20;;
82630;SDS011;72301;52.376;9.738;2023-11-18T07:25:55;7.22;;;3.20;;
82630;SDS011;72301;52.376;9.738;2023-11-18T07:28:21;7.72;;;3.58;;
82630;SDS011;72301;52.376;9.738;2023-11-18T07:30:47;7.97;;;3.65;;
82630;SDS011;72301;52.376;9.738;2023-11-18T07:33:16;6.72;;;2.85;;
82630;SDS011;72301;52.376;9.738;2023-11-18T07:35:42;8.30;;;3.20;;
82630;SDS011;72301;52.376;9.738;2023-11-18T07:38:08;8.20;;;3.28;;
82630;SDS011;72301;52.376;9.738;2023-11-18T07:40:34;9.13;;;3.95;;
82630;SDS011;72301;52.376;9.738;2023-11-18T07:43:00;11.07;;;4.00;;
82630;SDS011;72301;52.376;9.738;2023-11-18T07:45:34;6.35;;;2.67;;
82630;SDS011;72301;52.376;9.738;2023-11-18T07:48:02;8.85;;;3.22;;
82630;SDS011;72301;52.376;9.738;2023-11-18T07:50:31;8.63;;;3.40;;
82630;SDS011;72301;52.376;9.738;2023-11-18T07:53:00;8.55;;;3.63;;
82630;SDS011;72301;52.376;9.738;2023-11-18T07:55:26;7.07;;;2.75;;
82630;SDS011;72301;52.376;9.738;2023-11-18T07:57:51;7.60;;;3.05;;
82630;SDS011;72301;52.376;9.738;2023-11-18T08:00:17;7.65;;;3.30;;
82630;SDS011;72301;52.376;9.738;2023-11-18T08:02:42;10.20;;;3.92;;
82630;SDS011;72301;52.376;9.738;2023-11-18T08:05:09;8.02;;;3.13;;
82630;SDS011;72301;52.376;9.738;2023-11-18T08:07:39;9.05;;;3.40;;
82630;SDS011;72301;52.376;9.738;2023-11-18T08:10:05;8.13;;;3.83;;
82630;SDS011;72301;52.376;9.738;2023-11-18T08:12:31;8.50;;;3.20;;
82630;SDS011;72301;52.376;9.738;2023-11-18T08:14:57;6.97;;;3.17;;
82630;SDS011;72301;52.376;9.738;2023-11-18T08:17:24;9.00;;;4.05;;
82630;SDS011;72301;52.376;9.738;2023-11-18T08:19:50;7.32;;;2.58;;
82630;SDS011;72301;52.376;9.738;2023-11-18T08:22:16;7.38;;;3.17;;
82630;SDS011;72301;52.376;9.738;2023-11-18T08:24:44;7.75;;;3.35;;
82630;SDS011;72301;52.376;9.738;2023-11-18T08:27:09;6.88;;;2.80;;
82630;SDS011;72301;52.376;9.738;2023-11-18T08:29:36;7.65;;;3.40;;
82630;SDS011;72301;52.376;9.738;2023-11-18T08:32:03;8.68;;;3.15;;
82630;SDS011;72301;52.376;9.738;2023-11-18T08:34:29;7.32;;;2.85;;
82630;SDS011;72301;52.376;9.738;2023-11-18T08:36:54;8.20;;;3.22;;
82630;SDS011;72301;52.376;9.738;2023-11-18T08:39:19;8.07;;;2.78;;
82630;SDS011;72301;52.376;9.738;2023-11-18T08:44:21;8.57;;;3.08;;
82630;SDS011;72301;52.376;9.738;2023-11-18T08:46:49;6.88;;;2.92;;
82630;SDS011;72301;52.376;9.738;2023-11-18T08:49:18;8.32;;;3.20;;
82630;SDS011;72301;52.376;9.738;2023-11-18T08:51:47;7.93;;;3.63;;
82630;SDS011;72301;52.376;9.738;2023-11-18T08:54:17;7.50;;;3.40;;
82630;SDS011;72301;52.376;9.738;2023-11-18T08:56:51;9.05;;;3.60;;
82630;SDS011;72301;52.376;9.738;2023-11-18T08:59:17;10.07;;;4.53;;
82630;SDS011;72301;52.376;9.738;2023-11-18T09:01:55;8.57;;;3.70;;
82630;SDS011;72301;52.376;9.738;2023-11-18T09:04:24;6.30;;;2.92;;
82630;SDS011;72301;52.376;9.738;2023-11-18T09:06:50;7.25;;;2.90;;
82630;SDS011;72301;52.376;9.738;2023-11-18T09:09:20;7.70;;;3.72;;
82630;SDS011;72301;52.376;9.738;2023-11-18T09:11:51;8.57;;;3.28;;
82630;SDS011;72301;52.376;9.738;2023-11-18T09:14:21;5.82;;;2.17;;
82630;SDS011;72301;52.376;9.738;2023-11-18T09:16:49;8.50;;;3.20;;
82630;SDS011;72301;52.376;9.738;2023-11-18T09:19:15;7.00;;;2.80;;
82630;SDS011;72301;52.376;9.738;2023-11-18T09:21:42;8.90;;;3.13;;
82630;SDS011;72301;52.376;9.738;2023-11-18T09:24:08;6.82;;;3.00;;
82630;SDS011;72301;52.376;9.738;2023-11-18T09:26:37;7.45;;;2.72;;
82630;SDS011;72301;52.376;9.738;2023-11-18T09:29:03;8.02;;;3.38;;
82630;SDS011;72301;52.376;9.738;2023-11-18T09:31:28;8.75;;;3.13;;
82630;SDS011;72301;52.376;9.738;2023-11-18T09:34:03;8.07;;;3.10;;
82630;SDS011;72301;52.376;9.738;2023-11-18T09:36:32;8.18;;;3.10;;
82630;SDS011;72301;52.376;9.738;2023-11-18T09:38:58;7.18;;;2.97;;
82630;SDS011;72301;52.376;9.738;2023-11-18T09:41:24;7.65;;;3.60;;
82630;SDS011;72301;52.376;9.738;2023-11-18T09:43:52;7.28;;;3.10;;
82630;SDS011;72301;52.376;9.738;2023-11-18T09:46:23;8.15;;;3.03;;
82630;SDS011;72301;52.376;9.738;2023-11-18T09:48:50;7.97;;;3.15;;
82630;SDS011;72301;52.376;9.738;2023-11-18T09:51:25;9.32;;;3.40;;
82630;SDS011;72301;52.376;9.738;2023-11-18T09:53:58;8.82;;;3.92;;
82630;SDS011;72301;52.376;9.738;2023-11-18T09:56:30;8.10;;;3.80;;
82630;SDS011;72301;52.376;9.738;2023-11-18T09:59:13;6.70;;;2.83;;
82630;SDS011;72301;52.376;9.738;2023-11-18T10:01:44;6.32;;;2.42;;
82630;SDS011;72301;52.376;9.738;2023-11-18T10:04:18;8.57;;;3.03;;
82630;SDS011;72301;52.376;9.738;2023-11-18T10:06:52;6.50;;;2.50;;
82630;SDS011;72301;52.376;9.738;2023-11-18T10:09:18;6.70;;;2.70;;
82630;SDS011;72301;52.376;9.738;2023-11-18T10:11:53;8.63;;;2.83;;
82630;SDS011;72301;52.376;9.738;2023-11-18T10:14:25;7.38;;;3.10;;
82630;SDS011;72301;52.376;9.738;2023-11-18T10:16:54;7.50;;;3.13;;
82630;SDS011;72301;52.376;9.738;2023-11-18T10:19:20;6.93;;;2.90;;
82630;SDS011;72301;52.376;9.738;2023-11-18T10:21:46;7.85;;;2.72;;
82630;SDS011;72301;52.376;9.738;2023-11-18T10:24:14;7.10;;;2.30;;
82630;SDS011;72301;52.376;9.738;2023-11-18T10:26:42;6.70;;;2.55;;
82630;SDS011;72301;52.376;9.738;2023-11-18T10:29:10;7.80;;;3.00;;
82630;SDS011;72301;52.376;9.738;2023-11-18T10:31:38;6.05;;;2.55;;
82630;SDS011;72301;52.376;9.738;2023-11-18T10:34:09;8.43;;;2.75;;
82630;SDS011;72301;52.376;9.738;2023-11-18T10:36:36;6.72;;;2.58;;
82630;SDS011;72301;52.376;9.738;2023-11-18T10:39:02;7.65;;;3.03;;
82630;SDS011;72301;52.376;9.738;2023-11-18T10:41:40;7.90;;;2.60;;
82630;SDS011;72301;52.376;9.738;2023-11-18T10:44:11;7.35;;;3.38;;
82630;SDS011;72301;52.376;9.738;2023-11-18T10:46:52;7.43;;;3.30;;
82630;SDS011;72301;52.376;9.738;2023-11-18T10:49:19;8.35;;;3.45;;
82630;SDS011;72301;52.376;9.738;2023-11-18T10:51:46;6.47;;;2.63;;
82630;SDS011;72301;52.376;9.738;2023-11-18T10:54:12;6.10;;;2.50;;
82630;SDS011;72301;52.376;9.738;2023-11-18T10:56:45;6.88;;;2.88;;
82630;SDS011;72301;52.376;9.738;2023-11-18T10:59:11;7.20;;;2.53;;
82630;SDS011;72301;52.376;9.738;2023-11-18T11:05:29;6.93;;;2.50;;
82630;SDS011;72301;52.376;9.738;2023-11-18T11:07:59;6.90;;;2.83;;
82630;SDS011;72301;52.376;9.738;2023-11-18T11:10:30;5.85;;;2.40;;
82630;SDS011;72301;52.376;9.738;2023-11-18T11:13:02;8.93;;;2.90;;
82630;SDS011;72301;52.376;9.738;2023-11-18T11:15:36;7.43;;;2.80;;
82630;SDS011;72301;52.376;9.738;2023-11-18T11:21:26;6.68;;;2.70;;
82630;SDS011;72301;52.376;9.738;2023-11-18T11:29:36;6.25;;;2.40;;
82630;SDS011;72301;52.376;9.738;2023-11-18T11:37:51;6.43;;;2.65;;
82630;SDS011;72301;52.376;9.738;2023-11-18T11:40:18;5.75;;;2.40;;
82630;SDS011;72301;52.376;9.738;2023-11-18T11:42:55;7.32;;;2.58;;
82630;SDS011;72301;52.376;9.738;2023-11-18T11:45:47;6.50;;;2.40;;
82630;SDS011;72301;52.376;9.738;2023-11-18T11:48:17;6.80;;;2.50;;
82630;SDS011;72301;52.376;9.738;2023-11-18T11:51:00;6.57;;;2.50;;
82630;SDS011;72301;52.376;9.738;2023-11-18T11:53:52;6.35;;;2.50;;
82630;SDS011;72301;52.376;9.738;2023-11-18T11:57:23;5.70;;;2.42;;
82630;SDS011;72301;52.376;9.738;2023-11-18T12:00:11;5.68;;;2.55;;
82630;SDS011;72301;52.376;9.738;2023-11-18T12:02:55;6.47;;;2.20;;
82630;SDS011;72301;52.376;9.738;2023-11-18T12:05:29;5.45;;;2.40;;
82630;SDS011;72301;52.376;9.738;2023-11-18T12:07:58;6.05;;;2.35;;
82630;SDS011;72301;52.376;9.738;2023-11-18T12:10:27;6.22;;;2.60;;
82630;SDS011;72301;52.376;9.738;2023-11-18T12:13:11;6.25;;;2.50;;
82630;SDS011;72301;52.376;9.738;2023-11-18T12:15:48;5.68;;;2.00;;
82630;SDS011;72301;52.376;9.738;2023-11-18T12:18:28;7.13;;;2.30;;
82630;SDS011;72301;52.376;9.738;2023-11-18T12:38:30;5.90;;;2.17;;
82630;SDS011;72301;52.376;9.738;2023-11-18T12:44:54;6.15;;;2.33;;
82630;SDS011;72301;52.376;9.738;2023-11-18T12:47:39;5.07;;;2.05;;
82630;SDS011;72301;52.376;9.738;2023-11-18T12:50:09;6.20;;;2.00;;
82630;SDS011;72301;52.376;9.738;2023-11-18T12:52:42;5.95;;;2.20;;
82630;SDS011;72301;52.376;9.738;2023-11-18T12:55:09;6.18;;;2.20;;
82630;SDS011;72301;52.376;9.738;2023-11-18T13:01:44;5.82;;;2.50;;
82630;SDS011;72301;52.376;9.738;2023-11-18T13:07:48;5.60;;;2.47;;
82630;SDS011;72301;52.376;9.738;2023-11-18T13:17:10;6.13;;;2.20;;
82630;SDS011;72301;52.376;9.738;2023-11-18T13:19:36;7.00;;;2.72;;
82630;SDS011;72301;52.376;9.738;2023-11-18T13:22:03;7.32;;;2.47;;
82630;SDS011;72301;52.376;9.738;2023-11-18T13:24:35;5.93;;;2.35;;
82630;SDS011;72301;52.376;9.738;2023-11-18T13:27:05;5.63;;;2.25;;
82630;SDS011;72301;52.376;9.738;2023-11-18T13:29:35;6.03;;;2.33;;
82630;SDS011;72301;52.376;9.738;2023-11-18T13:32:01;7.07;;;2.22;;
82630;SDS011;72301;52.376;9.738;2023-11-18T13:34:33;6.40;;;2.53;;
82630;SDS011;72301;52.376;9.738;2023-11-18T13:39:55;6.32;;;2.30;;
82630;SDS011;72301;52.376;9.738;2023-11-18T13:42:24;6.22;;;2.20;;
82630;SDS011;72301;52.376;9.738;2023-11-18T13:45:16;6.38;;;2.50;;
82630;SDS011;72301;52.376;9.738;2023-11-18T13:50:20;6.93;;;2.25;;
82630;SDS011;72301;52.376;9.738;2023-11-18T13:52:57;6.25;;;2.28;;
82630;SDS011;72301;52.376;9.738;2023-11-18T13:55:28;6.25;;;2.45;;
82630;SDS011;72301;52.376;9.738;2023-11-18T13:57:59;6.30;;;2.42;;
82630;SDS011;72301;52.376;9.738;2023-11-18T14:00:48;6.03;;;2.28;;
82630;SDS011;72301;52.376;9.738;2023-11-18T14:03:14;6.38;;;2.40;;
82630;SDS011;72301;52.376;9.738;2023-11-18T14:06:08;5.47;;;2.33;;
82630;SDS011;72301;52.376;9.738;2023-11-18T14:08:38;7.03;;;2.50;;
82630;SDS011;72301;52.376;9.738;2023-11-18T14:11:04;6.28;;;2.67;;
82630;SDS011;72301;52.376;9.738;2023-11-18T14:13:31;6.80;;;2.30;;
82630;SDS011;72301;52.376;9.738;2023-11-18T14:16:00;6.20;;;2.40;;
82630;SDS011;72301;52.376;9.738;2023-11-18T14:18:26;5.93;;;2.30;;
82630;SDS011;72301;52.376;9.738;2023-11-18T14:20:54;6.55;;;2.40;;
82630;SDS011;72301;52.376;9.738;2023-11-18T14:23:40;5.47;;;2.47;;
82630;SDS011;72301;52.376;9.738;2023-11-18T14:26:06;5.70;;;2.03;;
82630;SDS011;72301;52.376;9.738;2023-11-18T14:28:33;6.45;;;2.85;;
82630;SDS011;72301;52.376;9.738;2023-11-18T14:31:00;8.10;;;3.35;;
82630;SDS011;72301;52.376;9.738;2023-11-18T14:33:27;8.95;;;3.50;;
82630;SDS011;72301;52.376;9.738;2023-11-18T14:35:53;8.85;;;3.65;;
82630;SDS011;72301;52.376;9.738;2023-11-18T14:38:19;8.68;;;3.92;;
82630;SDS011;72301;52.376;9.738;2023-11-18T14:40:45;10.07;;;4.25;;
82630;SDS011;72301;52.376;9.738;2023-11-18T14:43:13;8.82;;;4.10;;
82630;SDS011;72301;52.376;9.738;2023-11-18T14:45:39;10.05;;;4.03;;
82630;SDS011;72301;52.376;9.738;2023-11-18T14:48:14;10.10;;;4.45;;
82630;SDS011;72301;52.376;9.738;2023-11-18T14:50:40;9.52;;;3.90;;
82630;SDS011;72301;52.376;9.738;2023-11-18T14:53:45;9.88;;;4.20;;
82630;SDS011;72301;52.376;9.738;2023-11-18T14:56:11;12.07;;;4.28;;
82630;SDS011;72301;52.376;9.738;2023-11-18T14:58:36;8.40;;;3.63;;
82630;SDS011;72301;52.376;9.738;2023-11-18T15:01:07;9.85;;;5.20;;
82630;SDS011;72301;52.376;9.738;2023-11-18T15:03:35;7.50;;;3.20;;
82630;SDS011;72301;52.376;9.738;2023-11-18T15:06:01;10.63;;;4.55;;
82630;SDS011;72301;52.376;9.738;2023-11-18T15:08:26;8.68;;;3.75;;
82630;SDS011;72301;52.376;9.738;2023-11-18T15:11:07;10.30;;;4.40;;
82630;SDS011;72301;52.376;9.738;2023-11-18T15:13:32;9.35;;;3.92;;
82630;SDS011;72301;52.376;9.738;2023-11-18T15:15:58;10.25;;;4.07;;
82630;SDS011;72301;52.376;9.738;2023-11-18T15:18:23;9.27;;;3.80;;
82630;SDS011;72301;52.376;9.738;2023-11-18T15:20:49;9.25;;;3.78;;
82630;SDS011;72301;52.376;9.738;2023-11-18T15:23:17;8.93;;;4.03;;
82630;SDS011;72301;52.376;9.738;2023-11-18T15:25:43;9.23;;;4.20;;
82630;SDS011;72301;52.376;9.738;2023-11-18T15:28:08;9.38;;;3.72;;
82630;SDS011;72301;52.376;9.738;2023-11-18T15:30:38;10.18;;;4.05;;
82630;SDS011;72301;52.376;9.738;2023-11-18T15:33:07;9.48;;;4.18;;
82630;SDS011;72301;52.376;9.738;2023-11-18T15:35:36;9.98;;;4.25;;
82630;SDS011;72301;52.376;9.738;2023-11-18T15:38:16;9.02;;;3.97;;
82630;SDS011;72301;52.376;9.738;2023-11-18T15:40:42;9.35;;;3.80;;
82630;SDS011;72301;52.376;9.738;2023-11-18T15:43:08;9.73;;;3.85;;
82630;SDS011;72301;52.376;9.738;2023-11-18T15:45:37;10.13;;;4.47;;
82630;SDS011;72301;52.376;9.738;2023-11-18T15:48:05;8.73;;;3.83;;
82630;SDS011;72301;52.376;9.738;2023-11-18T15:50:32;10.32;;;4.10;;
82630;SDS011;72301;52.376;9.738;2023-11-18T15:53:02;8.52;;;4.03;;
82630;SDS011;72301;52.376;9.738;2023-11-18T15:55:31;10.50;;;4.07;;
82630;SDS011;72301;52.376;9.738;2023-11-18T15:57:57;9.07;;;4.47;;
82630;SDS011;72301;52.376;9.738;2023-11-18T16:00:26;10.40;;;4.10;;